Time;durP1;ratioP1;P1;durP2;ratioP2;P2;SDS_P1;SDS_P2;PMS_P1;PMS_P2;Temp;Humidity;BMP_temperature;BMP_pressure;BME280_temperature;BME280_humidity;BME280_pressure;Samples;Min_cycle;Max_cycle;Signal;HPM_P1;HPM_P2
2023/12/22 00:00:26;;;;;;;8.63;1.60;;;;;;;;;;1038558;28;20051;-66
2023/12/22 00:01:17;;;;;;;11.18;2.28;;;;;;;;;;1038924;28;20081;-67
2023/12/22 00:01:47;;;;;;;6.70;2.05;;;;;;;;;;1037435;28;20053;-66
2023/12/22 00:02:18;;;;;;;5.40;2.22;;;;;;;;;;1037806;28;20603;-67
2023/12/22 00:02:48;;;;;;;8.70;1.88;;;;;;;;;;1039716;28;20053;-65
2023/12/22 00:03:19;;;;;;;11.25;2.28;;;;;;;;;;1038497;28;20053;-65
2023/12/22 00:03:50;;;;;;;4.72;2.03;;;;;;;;;;1038190;28;20406;-67
2023/12/22 00:04:20;;;;;;;12.00;2.90;;;;;;;;;;1039063;28;20052;-67
2023/12/22 00:04:51;;;;;;;7.35;2.20;;;;;;;;;;1039478;28;20049;-66
2023/12/22 00:05:22;;;;;;;7.07;1.88;;;;;;;;;;1038097;28;20053;-67
2023/12/22 00:05:52;;;;;;;4.47;1.60;;;;;;;;;;1037236;28;20057;-67
2023/12/22 00:06:22;;;;;;;10.30;2.13;;;;;;;;;;1040457;28;20049;-67
2023/12/22 00:06:54;;;;;;;5.90;2.05;;;;;;;;;;1039390;28;20565;-66
2023/12/22 00:07:25;;;;;;;10.70;2.00;;;;;;;;;;1039075;28;20060;-67
2023/12/22 00:07:56;;;;;;;9.52;2.50;;;;;;;;;;1038153;28;20044;-67
2023/12/22 00:08:26;;;;;;;10.23;2.03;;;;;;;;;;1038978;28;20053;-65
2023/12/22 00:08:57;;;;;;;4.55;1.60;;;;;;;;;;1038064;28;20123;-65
2023/12/22 00:09:27;;;;;;;9.18;2.45;;;;;;;;;;1038263;28;20048;-68
2023/12/22 00:09:58;;;;;;;6.38;1.75;;;;;;;;;;1039026;28;20045;-67
2023/12/22 00:10:28;;;;;;;5.50;1.90;;;;;;;;;;1037167;28;20126;-67
2023/12/22 00:10:59;;;;;;;5.07;1.85;;;;;;;;;;1038096;28;20064;-67
2023/12/22 00:11:30;;;;;;;10.18;2.78;;;;;;;;;;1039338;28;20051;-66
2023/12/22 00:12:00;;;;;;;7.60;2.10;;;;;;;;;;1040295;28;20068;-66
2023/12/22 00:12:31;;;;;;;9.10;2.55;;;;;;;;;;1038693;28;20179;-66
2023/12/22 00:13:02;;;;;;;3.80;1.77;;;;;;;;;;1038551;28;20049;-65
2023/12/22 00:13:33;;;;;;;7.75;1.75;;;;;;;;;;1038888;28;20045;-67
2023/12/22 00:14:03;;;;;;;6.47;2.03;;;;;;;;;;1041254;28;20059;-67
2023/12/22 00:14:34;;;;;;;4.60;1.75;;;;;;;;;;1040291;28;20084;-66
2023/12/22 00:15:06;;;;;;;8.55;2.00;;;;;;;;;;1038089;28;20103;-65
2023/12/22 00:15:36;;;;;;;9.20;2.13;;;;;;;;;;1039237;28;20095;-66
2023/12/22 00:16:07;;;;;;;8.63;1.98;;;;;;;;;;1038884;28;20049;-66
2023/12/22 00:16:38;;;;;;;6.93;2.10;;;;;;;;;;1039967;28;21895;-64
2023/12/22 00:17:08;;;;;;;8.00;1.90;;;;;;;;;;1039670;28;20547;-66
2023/12/22 00:17:39;;;;;;;5.47;1.95;;;;;;;;;;1040394;28;20053;-67
2023/12/22 00:18:10;;;;;;;5.55;2.03;;;;;;;;;;1037571;28;20053;-65
2023/12/22 00:18:40;;;;;;;5.43;2.08;;;;;;;;;;1037572;28;21897;-66
2023/12/22 00:19:11;;;;;;;6.03;2.00;;;;;;;;;;1039243;28;20052;-66
2023/12/22 00:19:42;;;;;;;4.85;2.20;;;;;;;;;;1040579;28;20057;-67
2023/12/22 00:20:14;;;;;;;4.88;2.08;;;;;;;;;;1040434;28;20132;-64
2023/12/22 00:20:44;;;;;;;6.20;1.90;;;;;;;;;;1041283;28;20485;-67
2023/12/22 00:21:15;;;;;;;5.85;2.05;;;;;;;;;;1041075;28;20098;-68
2023/12/22 00:21:45;;;;;;;7.43;2.25;;;;;;;;;;1039645;28;20049;-66
2023/12/22 00:22:16;;;;;;;9.55;2.42;;;;;;;;;;1037953;28;20040;-67
2023/12/22 00:22:46;;;;;;;11.15;2.70;;;;;;;;;;1037584;28;20480;-68
2023/12/22 00:23:17;;;;;;;10.07;2.22;;;;;;;;;;1038262;28;20057;-65
2023/12/22 00:23:47;;;;;;;13.73;2.63;;;;;;;;;;1038619;28;20053;-67
2023/12/22 00:24:18;;;;;;;6.68;2.15;;;;;;;;;;1037975;28;20041;-67
2023/12/22 00:24:48;;;;;;;6.22;1.70;;;;;;;;;;1040323;28;20053;-68
2023/12/22 00:25:19;;;;;;;9.20;2.47;;;;;;;;;;1042269;28;20468;-67
2023/12/22 00:25:49;;;;;;;10.68;2.33;;;;;;;;;;1041747;28;20719;-66
2023/12/22 00:26:20;;;;;;;6.00;2.17;;;;;;;;;;1040639;28;20053;-66
2023/12/22 00:26:50;;;;;;;6.05;1.92;;;;;;;;;;1038061;28;20139;-68
2023/12/22 00:27:21;;;;;;;7.10;2.88;;;;;;;;;;1039376;28;20060;-66
2023/12/22 00:27:51;;;;;;;8.07;2.45;;;;;;;;;;1038484;28;20067;-67
2023/12/22 00:28:22;;;;;;;5.88;2.10;;;;;;;;;;1037285;28;20049;-65
2023/12/22 00:28:52;;;;;;;8.35;2.05;;;;;;;;;;1038197;28;20669;-67
2023/12/22 00:29:23;;;;;;;9.68;2.33;;;;;;;;;;1039195;28;20782;-68
2023/12/22 00:29:53;;;;;;;8.25;2.35;;;;;;;;;;1039096;28;20140;-66
2023/12/22 00:30:24;;;;;;;8.35;2.10;;;;;;;;;;1039716;28;23232;-64
2023/12/22 00:30:55;;;;;;;6.72;2.38;;;;;;;;;;1038379;28;20091;-67
2023/12/22 00:31:25;;;;;;;6.15;1.90;;;;;;;;;;1038364;28;20176;-68
2023/12/22 00:31:56;;;;;;;8.38;2.20;;;;;;;;;;1039853;28;20065;-66
2023/12/22 00:32:26;;;;;;;8.98;2.40;;;;;;;;;;1037732;28;20132;-68
2023/12/22 00:32:57;;;;;;;5.68;2.03;;;;;;;;;;1039727;28;20111;-68
2023/12/22 00:33:27;;;;;;;3.53;1.73;;;;;;;;;;1041420;28;20049;-67
2023/12/22 00:33:57;;;;;;;8.57;2.10;;;;;;;;;;1039947;28;20763;-68
2023/12/22 00:34:28;;;;;;;9.38;2.33;;;;;;;;;;1037964;28;20071;-67
2023/12/22 00:34:59;;;;;;;5.97;2.00;;;;;;;;;;1039618;28;20053;-67
2023/12/22 00:35:29;;;;;;;7.53;2.38;;;;;;;;;;1039375;28;20057;-67
2023/12/22 00:36:00;;;;;;;5.28;1.88;;;;;;;;;;1037905;28;20056;-67
2023/12/22 00:36:30;;;;;;;5.53;2.00;;;;;;;;;;1038913;28;20045;-68
2023/12/22 00:37:01;;;;;;;9.02;2.33;;;;;;;;;;1037888;28;20045;-70
2023/12/22 00:37:31;;;;;;;7.22;2.20;;;;;;;;;;1043845;28;20056;-66
2023/12/22 00:38:02;;;;;;;8.90;2.38;;;;;;;;;;1045717;28;20052;-67
2023/12/22 00:38:33;;;;;;;7.15;2.28;;;;;;;;;;1041461;28;20053;-68
2023/12/22 00:39:04;;;;;;;6.07;2.05;;;;;;;;;;1040694;28;20049;-67
2023/12/22 00:39:34;;;;;;;10.95;2.22;;;;;;;;;;1038503;28;20405;-65
2023/12/22 00:40:07;;;;;;;7.75;2.20;;;;;;;;;;1040492;28;20056;-69
2023/12/22 00:40:38;;;;;;;8.60;2.08;;;;;;;;;;1038538;28;20053;-66
2023/12/22 00:41:10;;;;;;;7.45;2.13;;;;;;;;;;1039500;28;20049;-67
2023/12/22 00:41:40;;;;;;;7.72;2.17;;;;;;;;;;1040246;28;20053;-66
2023/12/22 00:42:11;;;;;;;11.73;2.80;;;;;;;;;;1039898;28;20104;-68
2023/12/22 00:42:41;;;;;;;9.48;2.10;;;;;;;;;;1040046;28;20049;-69
2023/12/22 00:43:12;;;;;;;6.30;1.98;;;;;;;;;;1039717;28;20055;-65
2023/12/22 00:43:42;;;;;;;9.15;2.58;;;;;;;;;;1039139;28;20061;-65
2023/12/22 00:44:13;;;;;;;5.80;2.35;;;;;;;;;;1038760;28;20406;-66
2023/12/22 00:44:43;;;;;;;12.88;2.95;;;;;;;;;;1038204;28;20052;-66
2023/12/22 00:45:14;;;;;;;7.60;2.20;;;;;;;;;;1040096;28;20044;-66
2023/12/22 00:45:44;;;;;;;8.55;2.03;;;;;;;;;;1039144;28;20045;-65
2023/12/22 00:46:15;;;;;;;6.90;2.35;;;;;;;;;;1040623;28;20126;-67
2023/12/22 00:46:46;;;;;;;10.68;2.92;;;;;;;;;;1039179;28;20045;-66
2023/12/22 00:47:16;;;;;;;7.93;2.40;;;;;;;;;;1038917;28;20049;-65
2023/12/22 00:47:47;;;;;;;8.13;2.22;;;;;;;;;;1040550;28;20049;-66
2023/12/22 00:48:18;;;;;;;11.25;2.50;;;;;;;;;;1045608;28;20055;-66
2023/12/22 00:48:48;;;;;;;7.63;2.15;;;;;;;;;;1043495;28;20743;-67
2023/12/22 00:49:18;;;;;;;11.30;2.92;;;;;;;;;;1043079;28;20048;-67
2023/12/22 00:49:49;;;;;;;6.55;1.83;;;;;;;;;;1041710;28;20049;-65
2023/12/22 00:50:20;;;;;;;7.05;2.10;;;;;;;;;;1039440;28;20049;-66
2023/12/22 00:50:50;;;;;;;7.78;2.35;;;;;;;;;;1038116;28;20049;-66
2023/12/22 00:51:21;;;;;;;7.93;2.03;;;;;;;;;;1039855;28;20053;-67
2023/12/22 00:51:51;;;;;;;10.18;3.42;;;;;;;;;;1037943;28;20180;-68
2023/12/22 00:52:22;;;;;;;10.55;2.67;;;;;;;;;;1039127;28;20056;-66
2023/12/22 00:52:52;;;;;;;8.98;1.83;;;;;;;;;;1041118;28;20505;-67
2023/12/22 00:53:23;;;;;;;6.88;1.90;;;;;;;;;;1040304;28;20044;-68
2023/12/22 00:53:53;;;;;;;8.52;2.00;;;;;;;;;;1037497;28;20034;-66
2023/12/22 00:54:25;;;;;;;7.63;1.77;;;;;;;;;;1036884;28;20045;-67
2023/12/22 00:54:55;;;;;;;7.40;2.25;;;;;;;;;;1039554;28;20462;-66
2023/12/22 00:55:26;;;;;;;9.75;2.67;;;;;;;;;;1038127;28;20620;-64
2023/12/22 00:55:56;;;;;;;9.32;2.10;;;;;;;;;;1037893;28;20038;-66
2023/12/22 00:56:27;;;;;;;6.65;2.20;;;;;;;;;;1038969;28;20072;-66
2023/12/22 00:56:58;;;;;;;9.48;2.08;;;;;;;;;;1040142;28;20482;-68
2023/12/22 00:57:28;;;;;;;9.50;2.03;;;;;;;;;;1039738;28;20099;-66
2023/12/22 00:57:59;;;;;;;9.25;2.30;;;;;;;;;;1038756;28;20046;-66
2023/12/22 00:58:30;;;;;;;12.45;2.67;;;;;;;;;;1038338;28;20050;-67
2023/12/22 00:59:00;;;;;;;10.05;2.20;;;;;;;;;;1038565;28;20054;-68
2023/12/22 00:59:31;;;;;;;8.57;2.03;;;;;;;;;;1039863;28;20064;-65
2023/12/22 01:00:01;;;;;;;13.98;2.85;;;;;;;;;;1037923;28;20064;-67
2023/12/22 01:00:32;;;;;;;6.38;2.47;;;;;;;;;;1038451;28;20049;-65
2023/12/22 01:01:02;;;;;;;8.57;2.10;;;;;;;;;;1040245;28;20049;-65
2023/12/22 01:01:33;;;;;;;12.35;2.25;;;;;;;;;;1040576;28;20111;-66
2023/12/22 01:02:04;;;;;;;4.53;2.17;;;;;;;;;;1039907;28;20160;-67
2023/12/22 01:02:34;;;;;;;6.72;1.73;;;;;;;;;;1040180;28;20065;-67
2023/12/22 01:03:04;;;;;;;9.45;2.42;;;;;;;;;;1039760;28;20057;-67
2023/12/22 01:03:35;;;;;;;9.45;2.60;;;;;;;;;;1039723;28;20390;-66
2023/12/22 01:04:05;;;;;;;5.28;1.60;;;;;;;;;;1040620;28;20076;-66
2023/12/22 01:04:36;;;;;;;9.65;2.50;;;;;;;;;;1038114;28;20859;-67
2023/12/22 01:05:07;;;;;;;3.67;1.80;;;;;;;;;;1039068;28;20060;-68
2023/12/22 01:05:38;;;;;;;7.13;2.15;;;;;;;;;;1039177;28;20045;-68
2023/12/22 01:06:08;;;;;;;7.50;2.05;;;;;;;;;;1038102;28;20049;-66
2023/12/22 01:06:40;;;;;;;6.10;2.13;;;;;;;;;;1039039;28;20076;-65
2023/12/22 01:07:11;;;;;;;10.20;2.70;;;;;;;;;;1039026;28;20057;-66
2023/12/22 01:07:41;;;;;;;12.50;2.88;;;;;;;;;;1039528;28;20053;-67
2023/12/22 01:08:12;;;;;;;9.65;2.00;;;;;;;;;;1039318;28;20045;-65
2023/12/22 01:08:42;;;;;;;6.40;2.28;;;;;;;;;;1038356;28;20068;-66
2023/12/22 01:09:14;;;;;;;13.88;2.58;;;;;;;;;;1037813;28;20049;-68
2023/12/22 01:09:45;;;;;;;6.45;2.42;;;;;;;;;;1040150;28;20073;-66
2023/12/22 01:10:15;;;;;;;7.25;2.13;;;;;;;;;;1040976;28;20040;-67
2023/12/22 01:10:46;;;;;;;8.00;2.65;;;;;;;;;;1040409;28;20068;-65
2023/12/22 01:11:17;;;;;;;10.50;2.83;;;;;;;;;;1038230;28;20128;-66
2023/12/22 01:11:47;;;;;;;6.95;2.13;;;;;;;;;;1039443;28;20049;-67
2023/12/22 01:12:18;;;;;;;7.85;2.17;;;;;;;;;;1038801;28;20485;-67
2023/12/22 01:12:49;;;;;;;9.95;2.67;;;;;;;;;;1037133;28;20100;-67
2023/12/22 01:13:19;;;;;;;8.68;2.25;;;;;;;;;;1040721;28;20060;-66
2023/12/22 01:13:50;;;;;;;4.40;2.03;;;;;;;;;;1038433;28;20053;-67
2023/12/22 01:14:20;;;;;;;7.07;2.10;;;;;;;;;;1040199;28;20134;-68
2023/12/22 01:14:51;;;;;;;10.13;2.45;;;;;;;;;;1038379;28;20057;-67
2023/12/22 01:15:22;;;;;;;10.43;2.42;;;;;;;;;;1039272;28;20095;-67
2023/12/22 01:15:53;;;;;;;11.55;2.88;;;;;;;;;;1041019;28;20080;-66
2023/12/22 01:16:23;;;;;;;9.27;2.47;;;;;;;;;;1039101;28;20103;-65
2023/12/22 01:16:54;;;;;;;8.77;1.73;;;;;;;;;;1040375;28;20049;-66
2023/12/22 01:17:25;;;;;;;8.27;2.25;;;;;;;;;;1039461;28;20127;-65
2023/12/22 01:17:55;;;;;;;8.75;1.90;;;;;;;;;;1040643;28;20141;-66
2023/12/22 01:18:28;;;;;;;10.30;2.25;;;;;;;;;;1040401;28;20036;-68
2023/12/22 01:18:59;;;;;;;8.73;2.50;;;;;;;;;;1040254;28;20118;-66
2023/12/22 01:19:29;;;;;;;6.82;1.92;;;;;;;;;;1039967;28;20056;-65
2023/12/22 01:20:00;;;;;;;9.13;2.47;;;;;;;;;;1040301;28;20711;-68
2023/12/22 01:20:31;;;;;;;8.77;2.80;;;;;;;;;;1038436;28;20053;-65
2023/12/22 01:21:01;;;;;;;11.23;2.50;;;;;;;;;;1040978;28;20057;-67
2023/12/22 01:21:32;;;;;;;12.43;2.90;;;;;;;;;;1039156;28;20045;-65
2023/12/22 01:22:02;;;;;;;8.30;2.47;;;;;;;;;;1040459;28;20510;-69
2023/12/22 01:22:34;;;;;;;11.32;3.58;;;;;;;;;;1038265;28;20156;-67
2023/12/22 01:23:05;;;;;;;10.15;2.45;;;;;;;;;;1039104;28;20069;-68
2023/12/22 01:23:35;;;;;;;8.80;2.33;;;;;;;;;;1040643;28;20077;-66
2023/12/22 01:24:06;;;;;;;6.85;2.50;;;;;;;;;;1039443;28;20056;-67
2023/12/22 01:24:39;;;;;;;7.05;2.70;;;;;;;;;;1037826;28;20405;-67
2023/12/22 01:25:10;;;;;;;8.25;2.38;;;;;;;;;;1038796;28;20049;-67
2023/12/22 01:25:40;;;;;;;6.63;2.17;;;;;;;;;;1039902;28;20072;-66
2023/12/22 01:26:11;;;;;;;5.93;2.17;;;;;;;;;;1038639;28;20417;-66
2023/12/22 01:26:41;;;;;;;6.57;2.22;;;;;;;;;;1039350;28;20056;-66
2023/12/22 01:27:12;;;;;;;8.63;1.98;;;;;;;;;;1040897;28;20053;-67
2023/12/22 01:27:43;;;;;;;9.55;2.33;;;;;;;;;;1038244;28;20625;-66
2023/12/22 01:28:13;;;;;;;11.57;2.45;;;;;;;;;;1040043;28;20429;-65
2023/12/22 01:28:44;;;;;;;6.25;2.00;;;;;;;;;;1037630;28;20045;-67
2023/12/22 01:29:14;;;;;;;7.30;2.20;;;;;;;;;;1037534;28;20057;-66
2023/12/22 01:29:45;;;;;;;9.23;2.30;;;;;;;;;;1038651;28;20088;-67
2023/12/22 01:30:15;;;;;;;9.52;2.40;;;;;;;;;;1040662;28;20075;-66
2023/12/22 01:30:46;;;;;;;8.38;2.10;;;;;;;;;;1037715;28;20622;-68
2023/12/22 01:31:17;;;;;;;14.65;2.50;;;;;;;;;;1039091;28;20496;-67
2023/12/22 01:31:47;;;;;;;8.88;2.20;;;;;;;;;;1038818;28;20769;-67
2023/12/22 01:32:18;;;;;;;11.95;3.00;;;;;;;;;;1039718;28;20053;-66
2023/12/22 01:32:48;;;;;;;7.97;2.00;;;;;;;;;;1041728;28;20076;-64
2023/12/22 01:33:18;;;;;;;9.02;1.90;;;;;;;;;;1040726;28;20059;-67
2023/12/22 01:33:49;;;;;;;13.15;2.72;;;;;;;;;;1040897;28;20041;-67
2023/12/22 01:34:19;;;;;;;14.43;2.47;;;;;;;;;;1040373;28;20053;-65
2023/12/22 01:34:50;;;;;;;9.32;2.85;;;;;;;;;;1038759;28;20053;-66
2023/12/22 01:35:21;;;;;;;6.70;2.33;;;;;;;;;;1040356;28;20041;-67
2023/12/22 01:35:51;;;;;;;11.35;2.60;;;;;;;;;;1038084;28;20056;-65
2023/12/22 01:36:22;;;;;;;8.35;2.05;;;;;;;;;;1037289;28;20049;-68
2023/12/22 01:36:52;;;;;;;10.93;2.65;;;;;;;;;;1037360;28;20049;-67
2023/12/22 01:37:24;;;;;;;7.80;2.28;;;;;;;;;;1037772;28;20045;-67
2023/12/22 01:37:56;;;;;;;15.70;2.78;;;;;;;;;;1037623;28;20115;-66
2023/12/22 01:38:27;;;;;;;12.15;2.95;;;;;;;;;;1037463;28;20065;-66
2023/12/22 01:38:58;;;;;;;11.80;2.85;;;;;;;;;;1038153;28;20034;-68
2023/12/22 01:39:28;;;;;;;10.98;2.67;;;;;;;;;;1038080;28;20474;-65
2023/12/22 01:39:59;;;;;;;11.07;2.75;;;;;;;;;;1038977;28;20061;-67
2023/12/22 01:40:29;;;;;;;9.77;2.08;;;;;;;;;;1039976;28;20044;-67
2023/12/22 01:41:00;;;;;;;8.38;2.20;;;;;;;;;;1039283;28;20103;-65
2023/12/22 01:41:30;;;;;;;12.02;2.40;;;;;;;;;;1041032;28;20128;-65
2023/12/22 01:42:01;;;;;;;8.65;2.42;;;;;;;;;;1040390;28;20053;-67
2023/12/22 01:42:32;;;;;;;13.55;2.70;;;;;;;;;;1041081;28;20593;-65
2023/12/22 01:43:02;;;;;;;8.20;2.83;;;;;;;;;;1039027;28;20053;-66
2023/12/22 01:43:33;;;;;;;11.90;2.75;;;;;;;;;;1039129;28;20059;-68
2023/12/22 01:44:03;;;;;;;13.48;2.22;;;;;;;;;;1040227;28;20064;-67
2023/12/22 01:44:34;;;;;;;11.95;2.35;;;;;;;;;;1040870;28;20930;-68
2023/12/22 01:45:05;;;;;;;11.90;3.88;;;;;;;;;;1040647;28;20076;-67
2023/12/22 01:45:35;;;;;;;6.70;2.28;;;;;;;;;;1039940;28;22534;-68
2023/12/22 01:46:07;;;;;;;8.93;2.35;;;;;;;;;;1039544;28;20448;-66
2023/12/22 01:46:38;;;;;;;10.65;2.60;;;;;;;;;;1037781;28;20080;-66
2023/12/22 01:47:09;;;;;;;13.45;2.60;;;;;;;;;;1041785;28;20478;-67
2023/12/22 01:47:40;;;;;;;11.23;2.17;;;;;;;;;;1041095;28;20820;-67
2023/12/22 01:48:11;;;;;;;10.95;3.00;;;;;;;;;;1039748;28;20604;-68
2023/12/22 01:48:41;;;;;;;10.23;2.85;;;;;;;;;;1038500;28;20386;-66
2023/12/22 01:49:12;;;;;;;10.73;2.38;;;;;;;;;;1040269;28;20657;-65
2023/12/22 01:49:43;;;;;;;7.10;2.30;;;;;;;;;;1038855;28;20049;-66
2023/12/22 01:50:15;;;;;;;12.60;2.75;;;;;;;;;;1038112;28;20045;-67
2023/12/22 01:50:46;;;;;;;9.88;1.98;;;;;;;;;;1038916;28;20077;-66
2023/12/22 01:51:17;;;;;;;8.50;2.30;;;;;;;;;;1038299;28;20048;-65
2023/12/22 01:51:49;;;;;;;10.55;2.35;;;;;;;;;;1040050;28;20049;-66
2023/12/22 01:52:19;;;;;;;11.07;2.65;;;;;;;;;;1039136;28;20049;-66
2023/12/22 01:52:50;;;;;;;13.00;2.83;;;;;;;;;;1038294;28;20144;-67
2023/12/22 01:53:21;;;;;;;7.97;2.33;;;;;;;;;;1039810;28;20761;-67
2023/12/22 01:53:52;;;;;;;10.13;2.63;;;;;;;;;;1039277;28;20080;-66
2023/12/22 01:54:22;;;;;;;18.40;4.25;;;;;;;;;;1038968;28;20156;-67
2023/12/22 01:54:55;;;;;;;10.85;2.63;;;;;;;;;;1039896;28;20049;-66
2023/12/22 01:55:25;;;;;;;7.93;2.30;;;;;;;;;;1040716;28;20555;-67
2023/12/22 01:55:56;;;;;;;9.60;2.20;;;;;;;;;;1039327;28;20437;-65
2023/12/22 01:56:27;;;;;;;8.13;2.10;;;;;;;;;;1038670;28;20045;-66
2023/12/22 01:56:58;;;;;;;12.10;2.95;;;;;;;;;;1039597;28;20049;-67
2023/12/22 01:57:29;;;;;;;9.32;2.72;;;;;;;;;;1041207;28;20057;-66
2023/12/22 01:58:00;;;;;;;8.10;2.60;;;;;;;;;;1039871;28;20052;-66
2023/12/22 01:58:34;;;;;;;19.08;3.08;;;;;;;;;;1039471;28;20052;-68
2023/12/22 01:59:06;;;;;;;12.63;2.53;;;;;;;;;;1038310;28;20053;-67
2023/12/22 01:59:36;;;;;;;12.32;3.47;;;;;;;;;;1041611;28;20079;-67
2023/12/22 02:00:08;;;;;;;14.88;3.50;;;;;;;;;;1040259;28;20049;-66
2023/12/22 02:00:39;;;;;;;13.30;2.75;;;;;;;;;;1039066;28;20040;-67
2023/12/22 02:01:09;;;;;;;8.43;2.38;;;;;;;;;;1039180;28;20049;-67
2023/12/22 02:01:40;;;;;;;7.72;2.55;;;;;;;;;;1040560;28;20057;-69
2023/12/22 02:02:11;;;;;;;13.50;2.40;;;;;;;;;;1040507;28;20387;-67
2023/12/22 02:02:45;;;;;;;12.93;2.53;;;;;;;;;;1039964;28;20740;-66
2023/12/22 02:03:16;;;;;;;18.05;2.92;;;;;;;;;;1039659;28;20053;-67
2023/12/22 02:03:52;;;;;;;10.48;2.35;;;;;;;;;;1039486;28;20084;-65
2023/12/22 02:04:24;;;;;;;10.35;2.50;;;;;;;;;;1037821;28;20049;-66
2023/12/22 02:04:54;;;;;;;9.50;2.75;;;;;;;;;;1038290;28;20442;-66
2023/12/22 02:05:25;;;;;;;11.95;2.45;;;;;;;;;;1041079;28;20402;-66
2023/12/22 02:05:56;;;;;;;10.73;2.92;;;;;;;;;;1039802;28;20044;-67
2023/12/22 02:06:30;;;;;;;8.73;2.83;;;;;;;;;;1039656;28;20052;-66
2023/12/22 02:07:01;;;;;;;14.50;2.85;;;;;;;;;;1040314;28;20465;-68
2023/12/22 02:07:32;;;;;;;9.23;2.17;;;;;;;;;;1038988;28;20049;-66
2023/12/22 02:08:03;;;;;;;6.00;2.53;;;;;;;;;;1039677;28;20056;-66
2023/12/22 02:08:34;;;;;;;10.73;2.65;;;;;;;;;;1040093;28;20076;-64
2023/12/22 02:09:05;;;;;;;11.95;2.63;;;;;;;;;;1041423;28;20041;-67
2023/12/22 02:09:37;;;;;;;15.45;2.33;;;;;;;;;;1039031;28;20421;-68
2023/12/22 02:10:09;;;;;;;11.45;2.97;;;;;;;;;;1038342;28;20418;-66
2023/12/22 02:10:39;;;;;;;12.25;2.97;;;;;;;;;;1039962;28;20828;-66
2023/12/22 02:11:10;;;;;;;10.63;3.17;;;;;;;;;;1040377;28;20527;-65
2023/12/22 02:11:40;;;;;;;13.82;2.50;;;;;;;;;;1037963;28;20044;-67
2023/12/22 02:12:11;;;;;;;12.55;2.53;;;;;;;;;;1039993;28;20053;-66
2023/12/22 02:12:42;;;;;;;13.95;2.60;;;;;;;;;;1041463;28;20052;-66
2023/12/22 02:13:13;;;;;;;14.88;2.42;;;;;;;;;;1039365;28;20103;-67
2023/12/22 02:13:44;;;;;;;11.88;2.70;;;;;;;;;;1040028;28;20045;-69
2023/12/22 02:14:14;;;;;;;8.48;2.95;;;;;;;;;;1040239;28;20098;-65
2023/12/22 02:14:45;;;;;;;9.27;2.55;;;;;;;;;;1039368;28;20053;-67
2023/12/22 02:15:15;;;;;;;10.02;2.40;;;;;;;;;;1040469;28;20040;-67
2023/12/22 02:15:52;;;;;;;12.80;3.05;;;;;;;;;;1040227;28;20687;-67
2023/12/22 02:16:36;;;;;;;10.10;2.33;;;;;;;;;;1042059;28;20045;-65
2023/12/22 02:17:15;;;;;;;9.38;2.85;;;;;;;;;;1039146;28;20049;-68
2023/12/22 02:17:55;;;;;;;15.68;3.28;;;;;;;;;;1038704;28;20428;-67
2023/12/22 02:18:30;;;;;;;13.57;2.53;;;;;;;;;;1040224;28;20088;-66
2023/12/22 02:19:12;;;;;;;14.77;2.53;;;;;;;;;;1039695;28;20087;-67
2023/12/22 02:19:45;;;;;;;12.10;2.83;;;;;;;;;;1037875;28;20073;-65
2023/12/22 02:20:16;;;;;;;11.10;2.72;;;;;;;;;;1039116;28;20145;-67
2023/12/22 02:20:47;;;;;;;7.72;2.58;;;;;;;;;;1039833;28;20052;-66
2023/12/22 02:21:17;;;;;;;9.57;2.92;;;;;;;;;;1038222;28;20065;-66
2023/12/22 02:22:09;;;;;;;12.82;2.88;;;;;;;;;;1041251;28;20062;-66
2023/12/22 02:22:39;;;;;;;7.82;2.20;;;;;;;;;;1039749;28;20060;-65
2023/12/22 02:23:10;;;;;;;11.02;2.63;;;;;;;;;;1040901;28;20072;-65
2023/12/22 02:23:40;;;;;;;5.95;2.33;;;;;;;;;;1039627;28;20486;-67
2023/12/22 02:24:11;;;;;;;7.35;2.25;;;;;;;;;;1038279;28;20045;-66
2023/12/22 02:24:42;;;;;;;16.75;2.60;;;;;;;;;;1038024;28;20048;-68
2023/12/22 02:25:12;;;;;;;10.68;2.65;;;;;;;;;;1040729;28;20048;-65
2023/12/22 02:25:43;;;;;;;15.50;2.50;;;;;;;;;;1039450;28;20127;-66
2023/12/22 02:26:42;;;;;;;12.65;3.50;;;;;;;;;;1038221;28;20049;-66
2023/12/22 02:27:19;;;;;;;10.10;2.85;;;;;;;;;;1032495;28;20069;-65
2023/12/22 02:28:05;;;;;;;11.88;3.35;;;;;;;;;;1034543;28;20046;-67
2023/12/22 02:28:38;;;;;;;11.25;2.72;;;;;;;;;;1035405;28;20343;-65
2023/12/22 02:29:14;;;;;;;12.82;2.85;;;;;;;;;;1034422;28;20250;-67
2023/12/22 02:29:52;;;;;;;13.45;3.03;;;;;;;;;;1033709;28;20056;-66
2023/12/22 02:30:33;;;;;;;12.23;2.80;;;;;;;;;;1034439;28;20052;-66
2023/12/22 02:31:17;;;;;;;12.70;2.85;;;;;;;;;;1037359;28;20059;-64
2023/12/22 02:31:51;;;;;;;14.00;2.70;;;;;;;;;;1034727;28;20054;-66
2023/12/22 02:32:27;;;;;;;12.00;2.28;;;;;;;;;;1033602;28;20548;-67
2023/12/22 02:33:00;;;;;;;8.77;2.38;;;;;;;;;;1035195;28;20056;-65
2023/12/22 02:33:31;;;;;;;6.85;2.30;;;;;;;;;;1036719;28;20050;-66
2023/12/22 02:34:08;;;;;;;10.75;2.92;;;;;;;;;;1035224;28;20085;-67
2023/12/22 02:34:42;;;;;;;8.95;2.67;;;;;;;;;;1034966;28;20044;-69
2023/12/22 02:35:22;;;;;;;9.43;2.72;;;;;;;;;;1035487;28;20151;-67
2023/12/22 02:35:55;;;;;;;;;;;;;;;;;;1036414;28;20076;-68
2023/12/22 02:36:26;;;;;;;11.45;3.00;;;;;;;;;;1036576;28;20079;-67
2023/12/22 02:36:57;;;;;;;10.98;2.90;;;;;;;;;;1035303;28;20060;-64
2023/12/22 02:37:29;;;;;;;14.32;2.60;;;;;;;;;;1034856;28;20624;-66
2023/12/22 02:38:01;;;;;;;11.50;2.83;;;;;;;;;;1038013;28;20054;-68
2023/12/22 02:38:33;;;;;;;8.15;2.72;;;;;;;;;;1037535;28;20196;-67
2023/12/22 02:39:05;;;;;;;7.25;2.30;;;;;;;;;;1036134;28;20103;-66
2023/12/22 02:39:36;;;;;;;8.13;2.50;;;;;;;;;;1037571;28;20682;-67
2023/12/22 02:40:08;;;;;;;10.95;2.72;;;;;;;;;;1040676;28;20568;-68
2023/12/22 02:40:39;;;;;;;12.23;2.65;;;;;;;;;;1036718;28;20056;-65
2023/12/22 02:41:10;;;;;;;15.57;3.08;;;;;;;;;;1036611;28;20076;-68
2023/12/22 02:41:41;;;;;;;11.05;3.05;;;;;;;;;;1037476;28;20119;-67
2023/12/22 02:42:12;;;;;;;9.93;2.65;;;;;;;;;;1034114;28;20073;-66
2023/12/22 02:42:44;;;;;;;10.13;2.63;;;;;;;;;;1037295;28;20115;-67
2023/12/22 02:43:14;;;;;;;9.85;2.47;;;;;;;;;;1035594;28;20048;-67
2023/12/22 02:43:45;;;;;;;17.52;3.22;;;;;;;;;;1035957;28;20067;-66
2023/12/22 02:44:16;;;;;;;8.70;2.47;;;;;;;;;;1036205;28;20045;-68
2023/12/22 02:44:47;;;;;;;5.85;2.42;;;;;;;;;;1033779;28;20050;-68
2023/12/22 02:45:19;;;;;;;7.72;2.47;;;;;;;;;;1035844;28;20158;-66
2023/12/22 02:45:52;;;;;;;14.48;2.92;;;;;;;;;;1035575;28;20169;-64
2023/12/22 02:46:22;;;;;;;14.00;3.20;;;;;;;;;;1036124;28;20137;-66
2023/12/22 02:46:53;;;;;;;13.13;2.45;;;;;;;;;;1037678;28;20045;-66
2023/12/22 02:47:24;;;;;;;7.00;2.42;;;;;;;;;;1035953;28;20062;-67
2023/12/22 02:47:54;;;;;;;13.52;2.70;;;;;;;;;;1033700;28;20050;-67
2023/12/22 02:48:24;;;;;;;12.38;2.60;;;;;;;;;;1036985;28;20472;-67
2023/12/22 02:48:55;;;;;;;9.75;2.40;;;;;;;;;;1035414;28;20049;-67
2023/12/22 02:49:25;;;;;;;13.00;2.85;;;;;;;;;;1035131;28;20517;-65
2023/12/22 02:49:56;;;;;;;9.23;3.17;;;;;;;;;;1034956;28;20038;-67
2023/12/22 02:50:26;;;;;;;8.38;2.78;;;;;;;;;;1034734;28;20483;-66
2023/12/22 02:50:57;;;;;;;16.40;2.75;;;;;;;;;;1037210;28;20075;-67
2023/12/22 02:51:28;;;;;;;11.05;2.60;;;;;;;;;;1035616;28;20049;-65
2023/12/22 02:51:58;;;;;;;9.52;2.50;;;;;;;;;;1037970;28;20380;-68
2023/12/22 02:52:31;;;;;;;8.25;2.00;;;;;;;;;;1035579;28;20045;-65
2023/12/22 02:53:02;;;;;;;9.27;2.47;;;;;;;;;;1034851;28;20060;-66
2023/12/22 02:53:32;;;;;;;17.20;3.10;;;;;;;;;;1034621;28;20083;-67
2023/12/22 02:54:03;;;;;;;8.05;2.28;;;;;;;;;;1035404;28;20751;-65
2023/12/22 02:54:34;;;;;;;11.18;2.78;;;;;;;;;;1037373;28;20038;-65
2023/12/22 02:55:05;;;;;;;13.38;2.45;;;;;;;;;;1035343;28;20062;-67
2023/12/22 02:55:35;;;;;;;7.93;2.35;;;;;;;;;;1034771;28;20046;-66
2023/12/22 02:56:06;;;;;;;6.25;2.35;;;;;;;;;;1035756;28;20049;-68
2023/12/22 02:56:36;;;;;;;11.73;2.70;;;;;;;;;;1035385;28;20046;-64
2023/12/22 02:57:08;;;;;;;6.03;2.10;;;;;;;;;;1036084;28;20107;-67
2023/12/22 02:57:38;;;;;;;11.32;3.30;;;;;;;;;;1040060;28;20122;-67
2023/12/22 02:58:09;;;;;;;8.73;2.20;;;;;;;;;;1038466;28;20046;-67
2023/12/22 02:58:40;;;;;;;17.30;3.33;;;;;;;;;;1035333;28;20041;-67
2023/12/22 02:59:10;;;;;;;10.20;2.55;;;;;;;;;;1035477;28;20050;-66
2023/12/22 02:59:41;;;;;;;15.10;2.72;;;;;;;;;;1034254;28;20063;-65
2023/12/22 03:00:11;;;;;;;7.90;2.10;;;;;;;;;;1034628;28;20497;-66
2023/12/22 03:00:42;;;;;;;10.20;2.58;;;;;;;;;;1035682;28;20045;-66
2023/12/22 03:01:13;;;;;;;8.48;2.22;;;;;;;;;;1038231;28;20041;-66
2023/12/22 03:01:43;;;;;;;9.93;2.83;;;;;;;;;;1034939;28;20057;-65
2023/12/22 03:02:14;;;;;;;12.98;2.88;;;;;;;;;;1037487;28;20049;-67
2023/12/22 03:02:45;;;;;;;7.72;2.25;;;;;;;;;;1034824;28;20799;-64
2023/12/22 03:03:15;;;;;;;5.65;2.08;;;;;;;;;;1035854;28;20050;-66
2023/12/22 03:03:46;;;;;;;13.00;3.08;;;;;;;;;;1036770;28;20061;-67
2023/12/22 03:04:17;;;;;;;10.68;2.40;;;;;;;;;;1036193;28;20125;-65
2023/12/22 03:04:48;;;;;;;9.75;3.00;;;;;;;;;;1037687;28;20493;-68
2023/12/22 03:05:18;;;;;;;8.45;2.50;;;;;;;;;;1036653;28;20516;-67
2023/12/22 03:05:49;;;;;;;9.30;2.33;;;;;;;;;;1037290;28;20052;-66
2023/12/22 03:06:20;;;;;;;10.02;2.75;;;;;;;;;;1035495;28;20049;-67
2023/12/22 03:06:50;;;;;;;5.28;2.10;;;;;;;;;;1035518;28;20092;-65
2023/12/22 03:07:20;;;;;;;10.38;2.53;;;;;;;;;;1035329;28;20053;-67